createdAt,value
2023-01-06T00:02:46.924Z,100749.63
2023-01-06T00:07:50.042Z,100745.59
2023-01-06T00:12:52.489Z,100750.00
2023-01-06T00:17:54.145Z,100751.97
2023-01-06T00:22:55.727Z,100746.63
2023-01-06T00:27:57.457Z,100744.13
2023-01-06T00:32:59.060Z,100758.00
2023-01-06T00:38:00.653Z,100746.41
2023-01-06T00:43:02.314Z,100749.22
2023-01-06T00:48:04.155Z,100737.94
2023-01-06T00:53:05.926Z,100743.53
2023-01-06T00:58:07.616Z,100746.84
2023-01-06T01:03:09.292Z,100744.34
2023-01-06T01:08:10.883Z,100740.53
2023-01-06T01:13:12.431Z,100748.91
2023-01-06T01:18:13.990Z,100745.56
2023-01-06T01:23:16.165Z,100752.94
2023-01-06T01:28:17.738Z,100754.47
2023-01-06T01:33:19.332Z,100738.59
2023-01-06T01:38:21.201Z,100724.22
2023-01-06T01:43:22.885Z,100733.72
2023-01-06T01:48:32.313Z,100727.31
2023-01-06T01:53:37.522Z,100736.50
2023-01-06T01:58:48.165Z,100728.91
2023-01-06T02:03:49.824Z,100722.69
2023-01-06T02:09:04.662Z,100711.63
2023-01-06T02:14:12.356Z,100711.97
2023-01-06T02:19:51.361Z,100702.56
2023-01-06T02:25:34.137Z,100688.56
2023-01-06T02:31:16.204Z,100676.56
2023-01-06T02:36:35.116Z,100668.97
2023-01-06T02:41:48.281Z,100679.19
2023-01-06T02:46:53.970Z,100672.03
2023-01-06T02:52:04.775Z,100671.13
2023-01-06T02:57:38.009Z,100668.78
2023-01-06T03:02:41.538Z,100653.19
2023-01-06T03:07:45.536Z,100635.94
2023-01-06T03:12:52.927Z,100634.53
2023-01-06T03:17:55.181Z,100628.84
2023-01-06T03:22:56.882Z,100634.44
2023-01-06T03:27:58.553Z,100620.56
2023-01-06T03:33:03.491Z,100626.44
2023-01-06T03:38:33.602Z,100625.19
2023-01-06T03:43:41.441Z,100616.56
2023-01-06T03:48:57.393Z,100606.56
2023-01-06T03:54:04.191Z,100594.91
2023-01-06T03:59:11.193Z,100597.22
2023-01-06T04:04:13.413Z,100595.41
2023-01-06T04:09:15.849Z,100588.41
2023-01-06T04:14:20.485Z,100589.97
2023-01-06T04:19:22.428Z,100585.13
2023-01-06T04:24:24.174Z,100579.47
2023-01-06T04:29:25.893Z,100575.25
2023-01-06T04:34:30.228Z,100565.72
2023-01-06T04:39:33.004Z,100556.47
2023-01-06T04:44:34.661Z,100552.66
2023-01-06T04:49:36.390Z,100547.44
2023-01-06T04:54:38.031Z,100541.53
2023-01-06T04:59:39.614Z,100552.13
2023-01-06T05:04:47.781Z,100559.84
2023-01-06T05:09:49.825Z,100545.16
2023-01-06T05:14:51.503Z,100537.63
2023-01-06T05:19:53.184Z,100535.53
2023-01-06T05:24:55.903Z,100529.50
2023-01-06T05:29:57.496Z,100534.22
2023-01-06T05:34:59.123Z,100535.66
2023-01-06T05:40:00.690Z,100523.56
2023-01-06T05:45:02.328Z,100521.84
2023-01-06T05:50:04.718Z,100524.28
2023-01-06T05:55:06.846Z,100520.72
2023-01-06T06:00:09.106Z,100509.50
2023-01-06T06:05:16.317Z,100515.53
2023-01-06T06:10:17.990Z,100512.06
2023-01-06T06:15:19.781Z,100515.50
2023-01-06T06:20:21.377Z,100509.84
2023-01-06T06:25:22.964Z,100501.81
2023-01-06T06:30:24.690Z,100497.28
2023-01-06T06:35:26.382Z,100498.59
2023-01-06T06:40:27.981Z,100502.66
2023-01-06T06:45:29.617Z,100508.41
2023-01-06T06:50:31.290Z,100498.16
2023-01-06T06:55:33.548Z,100482.25
2023-01-06T07:00:35.130Z,100481.28
2023-01-06T07:05:36.785Z,100485.66
2023-01-06T07:10:38.788Z,100486.91
2023-01-06T07:15:40.507Z,100485.81
2023-01-06T07:20:47.088Z,100488.16
2023-01-06T07:25:53.224Z,100482.00
2023-01-06T07:30:54.941Z,100487.09
2023-01-06T07:35:57.287Z,100479.75
2023-01-06T07:41:00.929Z,100462.88
2023-01-06T07:46:02.572Z,100462.31
2023-01-06T07:51:04.354Z,100458.56
2023-01-06T07:56:06.502Z,100454.06
2023-01-06T08:01:08.480Z,100447.16
2023-01-06T08:06:11.107Z,100443.38
2023-01-06T08:11:13.318Z,100449.72
2023-01-06T08:16:15.065Z,100454.19
2023-01-06T08:21:16.752Z,100453.09
2023-01-06T08:26:18.652Z,100457.84
2023-01-06T08:31:21.554Z,100442.13
2023-01-06T08:36:24.199Z,100433.13
2023-01-06T08:41:25.840Z,100426.94
2023-01-06T08:46:27.502Z,100429.16
2023-01-06T08:51:29.177Z,100438.56
2023-01-06T08:56:31.641Z,100453.47
2023-01-06T09:01:35.971Z,100453.59
2023-01-06T09:06:38.504Z,100459.94
2023-01-06T09:11:44.836Z,100446.03
2023-01-06T09:16:48.677Z,100442.75
2023-01-06T09:21:50.332Z,100456.13
2023-01-06T09:26:51.997Z,100452.47
2023-01-06T09:31:53.578Z,100456.69
2023-01-06T09:36:55.182Z,100456.94
2023-01-06T09:42:21.544Z,100451.88
2023-01-06T09:47:28.297Z,100446.25
2023-01-06T09:52:36.211Z,100444.69
2023-01-06T09:57:41.187Z,100435.44
2023-01-06T10:02:43.359Z,100434.00
2023-01-06T10:08:03.957Z,100411.78
2023-01-06T10:13:29.517Z,100404.94
2023-01-06T10:18:31.101Z,100404.91
2023-01-06T10:23:39.414Z,100397.41
2023-01-06T10:28:43.895Z,100390.75
2023-01-06T10:33:53.479Z,100394.13
2023-01-06T10:38:55.260Z,100382.13
2023-01-06T10:43:57.499Z,100363.97
2023-01-06T10:48:59.167Z,100362.59
2023-01-06T10:54:02.750Z,100355.63
2023-01-06T10:59:14.123Z,100342.72
2023-01-06T11:04:17.334Z,100332.84
2023-01-06T11:09:39.182Z,100329.38
2023-01-06T11:14:41.261Z,100345.53
2023-01-06T11:19:45.017Z,100332.44
2023-01-06T11:24:52.859Z,100334.88
2023-01-06T11:29:55.026Z,100322.56
2023-01-06T11:35:05.004Z,100301.38
2023-01-06T11:40:25.335Z,100326.66
2023-01-06T11:46:04.723Z,100326.78
2023-01-06T11:51:09.067Z,100324.44
2023-01-06T11:56:13.405Z,100325.19
2023-01-06T12:01:46.276Z,100324.19
2023-01-06T12:06:49.194Z,100325.38
2023-01-06T12:11:52.975Z,100338.81
2023-01-06T12:16:56.891Z,100346.41
2023-01-06T12:21:59.464Z,100351.53
2023-01-06T12:27:02.776Z,100342.59
2023-01-06T12:32:15.251Z,100365.03
2023-01-06T12:37:37.753Z,100347.53
2023-01-06T12:42:46.749Z,100341.88
2023-01-06T12:47:54.155Z,100341.59
2023-01-06T12:53:07.333Z,100347.25
2023-01-06T12:58:25.115Z,100339.19
2023-01-06T13:03:50.930Z,100344.72
2023-01-06T13:09:33.382Z,100337.91
2023-01-06T13:14:46.915Z,100349.72
2023-01-06T13:19:52.483Z,100344.03
2023-01-06T13:25:25.233Z,100329.28
2023-01-06T13:30:50.974Z,100325.59
2023-01-06T13:36:11.248Z,100339.91
2023-01-06T13:41:16.914Z,100335.09
2023-01-06T13:46:21.239Z,100345.50
2023-01-06T13:51:27.258Z,100331.72
2023-01-06T13:56:31.129Z,100334.53
2023-01-06T14:01:34.101Z,100336.09
2023-01-06T14:06:39.954Z,100337.06
2023-01-06T14:11:41.813Z,100338.88
2023-01-06T14:16:48.057Z,100341.38
2023-01-06T14:21:52.060Z,100349.59
2023-01-06T14:27:02.461Z,100351.06
2023-01-06T14:32:04.108Z,100353.75
2023-01-06T14:37:11.884Z,100356.13
2023-01-06T14:42:20.829Z,100358.75
2023-01-06T14:47:42.723Z,100358.66
2023-01-06T14:52:55.902Z,100360.81
2023-01-06T14:57:57.535Z,100367.47
2023-01-06T15:03:20.140Z,100369.16
2023-01-06T15:08:23.209Z,100376.34
2023-01-06T15:13:31.580Z,100378.53
2023-01-06T15:18:34.309Z,100387.78
2023-01-06T15:23:38.211Z,100386.41
2023-01-06T15:28:39.776Z,100387.94
2023-01-06T15:33:41.793Z,100386.94
2023-01-06T15:38:43.466Z,100397.91
2023-01-06T15:43:45.951Z,100396.97
2023-01-06T15:48:48.820Z,100407.00
2023-01-06T15:53:56.369Z,100411.03
2023-01-06T15:58:58.883Z,100419.38
2023-01-06T16:04:01.884Z,100413.25
2023-01-06T16:09:37.718Z,100415.59
2023-01-06T16:14:51.831Z,100411.38
2023-01-06T16:20:01.205Z,100420.66
2023-01-06T16:25:26.897Z,100437.28
2023-01-06T16:30:30.176Z,100441.19
2023-01-06T16:35:33.749Z,100439.38
2023-01-06T16:40:35.371Z,100440.13
2023-01-06T16:45:47.287Z,100434.75
2023-01-06T16:50:54.792Z,100440.34
2023-01-06T16:55:57.778Z,100446.94
2023-01-06T17:01:08.239Z,100454.94
2023-01-06T17:06:17.640Z,100458.75
2023-01-06T17:11:21.518Z,100464.25
2023-01-06T17:16:27.332Z,100467.22
2023-01-06T17:21:30.123Z,100479.97
2023-01-06T17:26:32.234Z,100483.31
2023-01-06T17:31:37.973Z,100480.56
2023-01-06T17:36:41.826Z,100486.06
2023-01-06T17:41:43.697Z,100488.84
2023-01-06T17:46:46.463Z,100494.00
2023-01-06T17:51:49.314Z,100494.72
2023-01-06T17:56:52.288Z,100497.88
2023-01-06T18:01:53.906Z,100509.56
2023-01-06T18:06:55.572Z,100516.63
2023-01-06T18:11:59.287Z,100512.03
2023-01-06T18:17:15.373Z,100519.50
2023-01-06T18:22:19.857Z,100517.53
2023-01-06T18:27:25.320Z,100521.75
2023-01-06T18:32:28.306Z,100523.28
2023-01-06T18:37:32.550Z,100535.59
2023-01-06T18:42:38.226Z,100538.41
2023-01-06T18:47:41.607Z,100541.22
2023-01-06T18:52:45.763Z,100538.41
2023-01-06T18:57:55.224Z,100541.81
2023-01-06T19:03:06.366Z,100538.28
2023-01-06T19:08:15.701Z,100540.94
2023-01-06T19:13:23.363Z,100547.41
2023-01-06T19:18:28.417Z,100559.59
2023-01-06T19:23:31.021Z,100566.78
2023-01-06T19:28:34.162Z,100553.78
2023-01-06T19:33:41.715Z,100557.06
2023-01-06T19:38:44.178Z,100556.25
2023-01-06T19:43:46.888Z,100568.09
2023-01-06T19:48:49.242Z,100574.06
2023-01-06T19:53:54.565Z,100585.03
2023-01-06T19:59:30.282Z,100568.13
2023-01-06T20:04:31.865Z,100575.75
2023-01-06T20:09:34.110Z,100582.09
2023-01-06T20:14:35.858Z,100581.81
2023-01-06T20:19:37.460Z,100587.59
2023-01-06T20:24:39.845Z,100596.91
2023-01-06T20:29:41.508Z,100593.81
2023-01-06T20:34:43.133Z,100596.91
2023-01-06T20:39:44.954Z,100595.66
2023-01-06T20:44:46.673Z,100596.66
2023-01-06T20:49:48.519Z,100597.38
2023-01-06T20:54:50.641Z,100608.91
2023-01-06T20:59:52.234Z,100620.34
2023-01-06T21:04:53.798Z,100611.59
2023-01-06T21:09:55.387Z,100616.09
2023-01-06T21:14:56.978Z,100617.09
2023-01-06T21:19:58.544Z,100617.94
2023-01-06T21:25:00.160Z,100611.31
2023-01-06T21:30:02.133Z,100614.41
2023-01-06T21:35:03.948Z,100616.41
2023-01-06T21:40:09.044Z,100614.28
2023-01-06T21:45:11.072Z,100620.63
2023-01-06T21:50:12.931Z,100621.47
2023-01-06T21:55:14.800Z,100618.34
2023-01-06T22:00:16.984Z,100621.72
2023-01-06T22:05:18.622Z,100612.88
2023-01-06T22:10:22.374Z,100620.47
2023-01-06T22:15:24.020Z,100619.09
2023-01-06T22:20:27.232Z,100623.03
2023-01-06T22:25:28.994Z,100628.81
2023-01-06T22:30:30.853Z,100622.03
2023-01-06T22:35:32.575Z,100629.06
2023-01-06T22:40:34.213Z,100632.47
2023-01-06T22:45:35.903Z,100629.22
2023-01-06T22:50:38.174Z,100629.06
2023-01-06T22:55:39.757Z,100632.47
2023-01-06T23:00:41.367Z,100631.75
2023-01-06T23:05:42.949Z,100639.09
2023-01-06T23:10:44.561Z,100645.13
2023-01-06T23:15:46.337Z,100634.16
2023-01-06T23:20:56.711Z,100626.13
2023-01-06T23:26:06.077Z,100631.63
2023-01-06T23:31:13.191Z,100630.78
2023-01-06T23:36:17.354Z,100627.25
2023-01-06T23:41:21.793Z,100626.81
2023-01-06T23:46:25.896Z,100619.94
2023-01-06T23:51:32.169Z,100618.66
2023-01-06T23:56:35.670Z,100614.00
